sensor_id;sensor_type;location;lat;lon;timestamp;P1;durP1;ratioP1;P2;durP2;ratioP2
44516;SDS011;30223;17.182;-96.766;2023-02-28T00:01:11;4.82;;;2.92;;
44516;SDS011;30223;17.182;-96.766;2023-02-28T00:03:38;7.90;;;3.53;;
44516;SDS011;30223;17.182;-96.766;2023-02-28T00:06:06;3.30;;;2.88;;
44516;SDS011;30223;17.182;-96.766;2023-02-28T00:08:34;3.88;;;2.88;;
44516;SDS011;30223;17.182;-96.766;2023-02-28T00:11:02;4.15;;;2.80;;
44516;SDS011;30223;17.182;-96.766;2023-02-28T00:13:31;5.25;;;2.55;;
44516;SDS011;30223;17.182;-96.766;2023-02-28T00:16:02;3.33;;;2.78;;
44516;SDS011;30223;17.182;-96.766;2023-02-28T00:18:30;3.47;;;3.03;;
44516;SDS011;30223;17.182;-96.766;2023-02-28T00:20:58;5.68;;;3.55;;
44516;SDS011;30223;17.182;-96.766;2023-02-28T00:23:25;4.28;;;2.35;;
44516;SDS011;30223;17.182;-96.766;2023-02-28T00:25:52;2.58;;;2.25;;
44516;SDS011;30223;17.182;-96.766;2023-02-28T00:28:19;2.53;;;2.33;;
44516;SDS011;30223;17.182;-96.766;2023-02-28T00:30:46;4.43;;;2.58;;
44516;SDS011;30223;17.182;-96.766;2023-02-28T00:33:13;3.38;;;2.63;;
44516;SDS011;30223;17.182;-96.766;2023-02-28T00:35:40;3.13;;;2.80;;
44516;SDS011;30223;17.182;-96.766;2023-02-28T00:38:07;4.38;;;2.90;;
44516;SDS011;30223;17.182;-96.766;2023-02-28T00:40:33;3.63;;;2.40;;
44516;SDS011;30223;17.182;-96.766;2023-02-28T00:43:00;3.03;;;2.33;;
44516;SDS011;30223;17.182;-96.766;2023-02-28T00:45:28;4.30;;;3.03;;
44516;SDS011;30223;17.182;-96.766;2023-02-28T00:47:55;3.22;;;2.92;;
44516;SDS011;30223;17.182;-96.766;2023-02-28T00:50:21;4.00;;;2.97;;
44516;SDS011;30223;17.182;-96.766;2023-02-28T00:52:48;3.85;;;2.53;;
44516;SDS011;30223;17.182;-96.766;2023-02-28T00:55:15;3.13;;;2.00;;
44516;SDS011;30223;17.182;-96.766;2023-02-28T00:57:41;3.03;;;2.60;;
44516;SDS011;30223;17.182;-96.766;2023-02-28T01:00:08;2.90;;;2.58;;
44516;SDS011;30223;17.182;-96.766;2023-02-28T01:02:36;3.13;;;2.47;;
44516;SDS011;30223;17.182;-96.766;2023-02-28T01:05:03;2.83;;;2.53;;
44516;SDS011;30223;17.182;-96.766;2023-02-28T01:07:30;3.58;;;2.63;;
44516;SDS011;30223;17.182;-96.766;2023-02-28T01:09:59;3.95;;;2.90;;
44516;SDS011;30223;17.182;-96.766;2023-02-28T01:12:26;3.83;;;2.15;;
44516;SDS011;30223;17.182;-96.766;2023-02-28T01:14:53;2.78;;;2.47;;
44516;SDS011;30223;17.182;-96.766;2023-02-28T01:17:19;4.22;;;3.00;;
44516;SDS011;30223;17.182;-96.766;2023-02-28T01:19:46;2.58;;;2.10;;
44516;SDS011;30223;17.182;-96.766;2023-02-28T01:22:12;3.72;;;2.10;;
44516;SDS011;30223;17.182;-96.766;2023-02-28T01:24:39;3.63;;;2.38;;
44516;SDS011;30223;17.182;-96.766;2023-02-28T01:27:06;3.55;;;2.70;;
44516;SDS011;30223;17.182;-96.766;2023-02-28T01:29:32;4.38;;;2.67;;
44516;SDS011;30223;17.182;-96.766;2023-02-28T01:34:28;3.00;;;2.38;;
44516;SDS011;30223;17.182;-96.766;2023-02-28T01:36:54;3.30;;;2.63;;
44516;SDS011;30223;17.182;-96.766;2023-02-28T01:39:24;4.00;;;2.83;;
44516;SDS011;30223;17.182;-96.766;2023-02-28T01:41:51;3.35;;;2.67;;
44516;SDS011;30223;17.182;-96.766;2023-02-28T01:47:21;2.90;;;2.60;;
44516;SDS011;30223;17.182;-96.766;2023-02-28T01:52:17;3.60;;;2.38;;
44516;SDS011;30223;17.182;-96.766;2023-02-28T01:54:49;2.88;;;2.58;;
44516;SDS011;30223;17.182;-96.766;2023-02-28T01:57:21;4.05;;;3.20;;
44516;SDS011;30223;17.182;-96.766;2023-02-28T01:59:55;4.85;;;3.63;;
44516;SDS011;30223;17.182;-96.766;2023-02-28T02:02:26;3.65;;;2.75;;
44516;SDS011;30223;17.182;-96.766;2023-02-28T02:05:07;2.83;;;2.33;;
44516;SDS011;30223;17.182;-96.766;2023-02-28T02:07:41;3.70;;;2.90;;
44516;SDS011;30223;17.182;-96.766;2023-02-28T02:12:58;3.45;;;2.75;;
44516;SDS011;30223;17.182;-96.766;2023-02-28T02:24:11;5.27;;;3.23;;
44516;SDS011;30223;17.182;-96.766;2023-02-28T02:26:52;5.10;;;3.58;;
44516;SDS011;30223;17.182;-96.766;2023-02-28T02:32:45;4.93;;;4.43;;
44516;SDS011;30223;17.182;-96.766;2023-02-28T02:35:40;3.67;;;3.05;;
44516;SDS011;30223;17.182;-96.766;2023-02-28T02:38:51;5.13;;;3.67;;
44516;SDS011;30223;17.182;-96.766;2023-02-28T02:41:52;3.45;;;2.72;;
44516;SDS011;30223;17.182;-96.766;2023-02-28T02:47:17;6.05;;;3.65;;
44516;SDS011;30223;17.182;-96.766;2023-02-28T02:49:50;5.43;;;4.35;;
44516;SDS011;30223;17.182;-96.766;2023-02-28T02:52:20;11.68;;;6.20;;
44516;SDS011;30223;17.182;-96.766;2023-02-28T02:54:50;12.60;;;6.07;;
44516;SDS011;30223;17.182;-96.766;2023-02-28T02:57:36;11.73;;;6.63;;
44516;SDS011;30223;17.182;-96.766;2023-02-28T03:00:09;10.27;;;5.78;;
44516;SDS011;30223;17.182;-96.766;2023-02-28T03:02:37;10.38;;;6.82;;
44516;SDS011;30223;17.182;-96.766;2023-02-28T03:05:07;9.63;;;6.68;;
44516;SDS011;30223;17.182;-96.766;2023-02-28T03:07:40;13.48;;;6.85;;
44516;SDS011;30223;17.182;-96.766;2023-02-28T03:12:54;7.68;;;6.10;;
44516;SDS011;30223;17.182;-96.766;2023-02-28T03:15:49;10.55;;;6.00;;
44516;SDS011;30223;17.182;-96.766;2023-02-28T03:23:56;9.95;;;6.22;;
44516;SDS011;30223;17.182;-96.766;2023-02-28T03:26:30;8.50;;;6.45;;
44516;SDS011;30223;17.182;-96.766;2023-02-28T03:29:04;10.52;;;6.40;;
44516;SDS011;30223;17.182;-96.766;2023-02-28T03:31:50;7.00;;;5.55;;
44516;SDS011;30223;17.182;-96.766;2023-02-28T03:34:29;6.38;;;4.78;;
44516;SDS011;30223;17.182;-96.766;2023-02-28T03:37:07;7.53;;;5.07;;
44516;SDS011;30223;17.182;-96.766;2023-02-28T03:39:43;9.27;;;4.38;;
44516;SDS011;30223;17.182;-96.766;2023-02-28T03:42:14;5.75;;;3.70;;
44516;SDS011;30223;17.182;-96.766;2023-02-28T03:44:48;5.47;;;3.75;;
44516;SDS011;30223;17.182;-96.766;2023-02-28T03:47:37;6.83;;;4.07;;
44516;SDS011;30223;17.182;-96.766;2023-02-28T03:50:19;4.25;;;2.92;;
44516;SDS011;30223;17.182;-96.766;2023-02-28T03:52:50;4.65;;;2.47;;
44516;SDS011;30223;17.182;-96.766;2023-02-28T03:55:28;2.80;;;2.28;;
44516;SDS011;30223;17.182;-96.766;2023-02-28T03:58:03;5.05;;;2.60;;
44516;SDS011;30223;17.182;-96.766;2023-02-28T04:00:43;3.15;;;2.13;;
44516;SDS011;30223;17.182;-96.766;2023-02-28T04:03:18;6.45;;;1.80;;
44516;SDS011;30223;17.182;-96.766;2023-02-28T04:05:49;5.82;;;1.85;;
44516;SDS011;30223;17.182;-96.766;2023-02-28T04:08:19;3.08;;;1.83;;
44516;SDS011;30223;17.182;-96.766;2023-02-28T04:10:48;4.03;;;2.30;;
44516;SDS011;30223;17.182;-96.766;2023-02-28T04:13:20;3.17;;;1.73;;
44516;SDS011;30223;17.182;-96.766;2023-02-28T04:15:47;5.47;;;2.30;;
44516;SDS011;30223;17.182;-96.766;2023-02-28T04:18:14;5.20;;;2.00;;
44516;SDS011;30223;17.182;-96.766;2023-02-28T04:20:40;4.13;;;2.33;;
44516;SDS011;30223;17.182;-96.766;2023-02-28T04:23:07;3.72;;;1.67;;
44516;SDS011;30223;17.182;-96.766;2023-02-28T04:25:34;2.78;;;1.50;;
44516;SDS011;30223;17.182;-96.766;2023-02-28T04:28:00;2.25;;;1.75;;
44516;SDS011;30223;17.182;-96.766;2023-02-28T04:30:27;5.75;;;2.10;;
44516;SDS011;30223;17.182;-96.766;2023-02-28T04:32:54;4.25;;;1.60;;
44516;SDS011;30223;17.182;-96.766;2023-02-28T04:35:21;10.07;;;2.13;;
44516;SDS011;30223;17.182;-96.766;2023-02-28T04:37:48;4.35;;;2.33;;
44516;SDS011;30223;17.182;-96.766;2023-02-28T04:40:14;2.63;;;1.48;;
44516;SDS011;30223;17.182;-96.766;2023-02-28T04:42:41;2.22;;;1.52;;
44516;SDS011;30223;17.182;-96.766;2023-02-28T04:45:08;2.05;;;1.33;;
44516;SDS011;30223;17.182;-96.766;2023-02-28T04:47:35;2.25;;;1.75;;
44516;SDS011;30223;17.182;-96.766;2023-02-28T04:50:02;2.20;;;1.48;;
44516;SDS011;30223;17.182;-96.766;2023-02-28T04:52:29;2.78;;;2.15;;
44516;SDS011;30223;17.182;-96.766;2023-02-28T04:54:59;3.90;;;1.98;;
44516;SDS011;30223;17.182;-96.766;2023-02-28T04:57:25;3.95;;;1.60;;
44516;SDS011;30223;17.182;-96.766;2023-02-28T04:59:52;7.80;;;2.20;;
44516;SDS011;30223;17.182;-96.766;2023-02-28T05:02:19;2.22;;;1.40;;
44516;SDS011;30223;17.182;-96.766;2023-02-28T05:04:46;3.88;;;1.70;;
44516;SDS011;30223;17.182;-96.766;2023-02-28T05:07:13;3.05;;;1.75;;
44516;SDS011;30223;17.182;-96.766;2023-02-28T05:09:39;2.47;;;1.67;;
44516;SDS011;30223;17.182;-96.766;2023-02-28T05:12:06;3.92;;;1.83;;
44516;SDS011;30223;17.182;-96.766;2023-02-28T05:14:34;3.22;;;1.70;;
44516;SDS011;30223;17.182;-96.766;2023-02-28T05:17:01;2.15;;;1.60;;
44516;SDS011;30223;17.182;-96.766;2023-02-28T05:19:28;4.72;;;1.98;;
44516;SDS011;30223;17.182;-96.766;2023-02-28T05:21:55;3.55;;;2.08;;
44516;SDS011;30223;17.182;-96.766;2023-02-28T05:24:21;2.28;;;1.80;;
44516;SDS011;30223;17.182;-96.766;2023-02-28T05:26:49;3.75;;;1.63;;
44516;SDS011;30223;17.182;-96.766;2023-02-28T05:29:18;2.28;;;1.50;;
44516;SDS011;30223;17.182;-96.766;2023-02-28T05:31:46;5.05;;;2.60;;
44516;SDS011;30223;17.182;-96.766;2023-02-28T05:34:13;3.50;;;2.75;;
44516;SDS011;30223;17.182;-96.766;2023-02-28T05:36:40;3.72;;;1.92;;
44516;SDS011;30223;17.182;-96.766;2023-02-28T05:39:07;5.05;;;1.88;;
44516;SDS011;30223;17.182;-96.766;2023-02-28T05:41:38;2.83;;;1.80;;
44516;SDS011;30223;17.182;-96.766;2023-02-28T05:44:06;2.63;;;1.83;;
44516;SDS011;30223;17.182;-96.766;2023-02-28T05:46:33;3.17;;;1.55;;
44516;SDS011;30223;17.182;-96.766;2023-02-28T05:49:00;3.58;;;1.50;;
44516;SDS011;30223;17.182;-96.766;2023-02-28T05:51:27;2.03;;;1.35;;
44516;SDS011;30223;17.182;-96.766;2023-02-28T05:53:54;5.30;;;2.10;;
44516;SDS011;30223;17.182;-96.766;2023-02-28T05:56:23;2.05;;;1.60;;
44516;SDS011;30223;17.182;-96.766;2023-02-28T05:58:50;3.45;;;1.77;;
44516;SDS011;30223;17.182;-96.766;2023-02-28T06:01:35;2.15;;;1.40;;
44516;SDS011;30223;17.182;-96.766;2023-02-28T06:04:04;3.22;;;1.75;;
44516;SDS011;30223;17.182;-96.766;2023-02-28T06:06:32;2.08;;;1.48;;
44516;SDS011;30223;17.182;-96.766;2023-02-28T06:09:03;2.55;;;1.38;;
44516;SDS011;30223;17.182;-96.766;2023-02-28T06:11:30;2.00;;;1.83;;
44516;SDS011;30223;17.182;-96.766;2023-02-28T06:13:57;2.70;;;1.50;;
44516;SDS011;30223;17.182;-96.766;2023-02-28T06:16:26;8.43;;;1.70;;
44516;SDS011;30223;17.182;-96.766;2023-02-28T06:18:54;2.47;;;1.42;;
44516;SDS011;30223;17.182;-96.766;2023-02-28T06:21:23;4.10;;;1.30;;
44516;SDS011;30223;17.182;-96.766;2023-02-28T06:23:50;3.30;;;1.80;;
44516;SDS011;30223;17.182;-96.766;2023-02-28T06:26:16;4.25;;;1.80;;
44516;SDS011;30223;17.182;-96.766;2023-02-28T06:28:43;2.22;;;1.50;;
44516;SDS011;30223;17.182;-96.766;2023-02-28T06:31:10;2.00;;;1.27;;
44516;SDS011;30223;17.182;-96.766;2023-02-28T06:33:39;3.88;;;2.28;;
44516;SDS011;30223;17.182;-96.766;2023-02-28T06:36:06;2.40;;;1.52;;
44516;SDS011;30223;17.182;-96.766;2023-02-28T06:38:34;2.45;;;1.83;;
44516;SDS011;30223;17.182;-96.766;2023-02-28T06:41:01;1.83;;;1.20;;
44516;SDS011;30223;17.182;-96.766;2023-02-28T06:43:30;2.35;;;1.52;;
44516;SDS011;30223;17.182;-96.766;2023-02-28T06:45:59;2.90;;;1.73;;
44516;SDS011;30223;17.182;-96.766;2023-02-28T06:48:27;1.57;;;1.33;;
44516;SDS011;30223;17.182;-96.766;2023-02-28T06:51:10;2.33;;;1.40;;
44516;SDS011;30223;17.182;-96.766;2023-02-28T06:53:39;2.25;;;1.20;;
44516;SDS011;30223;17.182;-96.766;2023-02-28T06:56:07;2.80;;;1.52;;
44516;SDS011;30223;17.182;-96.766;2023-02-28T06:58:38;1.70;;;1.60;;
44516;SDS011;30223;17.182;-96.766;2023-02-28T07:01:06;1.63;;;1.40;;
44516;SDS011;30223;17.182;-96.766;2023-02-28T07:03:34;2.33;;;1.85;;
44516;SDS011;30223;17.182;-96.766;2023-02-28T07:06:01;1.60;;;1.33;;
44516;SDS011;30223;17.182;-96.766;2023-02-28T07:08:29;2.75;;;1.85;;
44516;SDS011;30223;17.182;-96.766;2023-02-28T07:10:57;3.85;;;1.75;;
44516;SDS011;30223;17.182;-96.766;2023-02-28T07:13:24;2.10;;;1.55;;
44516;SDS011;30223;17.182;-96.766;2023-02-28T07:16:01;3.90;;;1.63;;
44516;SDS011;30223;17.182;-96.766;2023-02-28T07:18:29;1.77;;;1.40;;
44516;SDS011;30223;17.182;-96.766;2023-02-28T07:20:57;1.25;;;1.00;;
44516;SDS011;30223;17.182;-96.766;2023-02-28T07:23:24;1.33;;;1.00;;
44516;SDS011;30223;17.182;-96.766;2023-02-28T07:25:51;2.35;;;1.95;;
44516;SDS011;30223;17.182;-96.766;2023-02-28T07:28:17;2.40;;;1.45;;
44516;SDS011;30223;17.182;-96.766;2023-02-28T07:30:44;2.60;;;1.80;;
44516;SDS011;30223;17.182;-96.766;2023-02-28T07:33:10;3.03;;;1.38;;
44516;SDS011;30223;17.182;-96.766;2023-02-28T07:35:37;3.25;;;1.10;;
44516;SDS011;30223;17.182;-96.766;2023-02-28T07:38:04;2.45;;;1.63;;
44516;SDS011;30223;17.182;-96.766;2023-02-28T07:40:33;1.58;;;1.20;;
44516;SDS011;30223;17.182;-96.766;2023-02-28T07:43:00;1.45;;;1.10;;
44516;SDS011;30223;17.182;-96.766;2023-02-28T07:45:27;1.33;;;0.90;;
44516;SDS011;30223;17.182;-96.766;2023-02-28T07:47:56;2.17;;;1.67;;
44516;SDS011;30223;17.182;-96.766;2023-02-28T07:50:23;2.10;;;1.00;;
44516;SDS011;30223;17.182;-96.766;2023-02-28T07:52:50;1.70;;;1.08;;
44516;SDS011;30223;17.182;-96.766;2023-02-28T07:55:17;2.83;;;1.08;;
44516;SDS011;30223;17.182;-96.766;2023-02-28T07:57:43;1.88;;;1.55;;
44516;SDS011;30223;17.182;-96.766;2023-02-28T08:00:10;3.08;;;1.20;;
44516;SDS011;30223;17.182;-96.766;2023-02-28T08:02:38;1.63;;;1.27;;
44516;SDS011;30223;17.182;-96.766;2023-02-28T08:05:05;3.00;;;1.02;;
44516;SDS011;30223;17.182;-96.766;2023-02-28T08:07:32;1.25;;;0.93;;
44516;SDS011;30223;17.182;-96.766;2023-02-28T08:09:59;1.67;;;1.55;;
44516;SDS011;30223;17.182;-96.766;2023-02-28T08:12:26;2.95;;;1.48;;
44516;SDS011;30223;17.182;-96.766;2023-02-28T08:14:52;1.80;;;1.25;;
44516;SDS011;30223;17.182;-96.766;2023-02-28T08:17:19;1.60;;;0.98;;
44516;SDS011;30223;17.182;-96.766;2023-02-28T08:19:46;1.70;;;1.10;;
44516;SDS011;30223;17.182;-96.766;2023-02-28T08:22:12;3.63;;;1.60;;
44516;SDS011;30223;17.182;-96.766;2023-02-28T08:24:40;1.98;;;1.77;;
44516;SDS011;30223;17.182;-96.766;2023-02-28T08:27:08;3.60;;;1.60;;
44516;SDS011;30223;17.182;-96.766;2023-02-28T08:29:38;1.60;;;1.02;;
44516;SDS011;30223;17.182;-96.766;2023-02-28T08:32:05;1.42;;;1.25;;
44516;SDS011;30223;17.182;-96.766;2023-02-28T08:34:32;2.78;;;1.30;;
44516;SDS011;30223;17.182;-96.766;2023-02-28T08:36:59;2.55;;;1.10;;
44516;SDS011;30223;17.182;-96.766;2023-02-28T08:39:26;2.05;;;1.05;;
44516;SDS011;30223;17.182;-96.766;2023-02-28T08:41:52;1.00;;;0.90;;
44516;SDS011;30223;17.182;-96.766;2023-02-28T08:44:19;3.50;;;1.23;;
44516;SDS011;30223;17.182;-96.766;2023-02-28T08:46:46;1.40;;;1.13;;
44516;SDS011;30223;17.182;-96.766;2023-02-28T08:49:12;2.67;;;1.55;;
44516;SDS011;30223;17.182;-96.766;2023-02-28T08:51:42;2.15;;;1.33;;
44516;SDS011;30223;17.182;-96.766;2023-02-28T08:54:09;2.58;;;1.50;;
44516;SDS011;30223;17.182;-96.766;2023-02-28T08:56:37;4.82;;;1.10;;
44516;SDS011;30223;17.182;-96.766;2023-02-28T08:59:04;1.45;;;1.10;;
44516;SDS011;30223;17.182;-96.766;2023-02-28T09:01:31;1.52;;;1.42;;
44516;SDS011;30223;17.182;-96.766;2023-02-28T09:03:58;1.85;;;1.13;;
44516;SDS011;30223;17.182;-96.766;2023-02-28T09:06:25;1.63;;;1.33;;
44516;SDS011;30223;17.182;-96.766;2023-02-28T09:08:58;1.52;;;1.10;;
44516;SDS011;30223;17.182;-96.766;2023-02-28T09:11:26;1.63;;;1.20;;
44516;SDS011;30223;17.182;-96.766;2023-02-28T09:13:53;1.40;;;1.17;;
44516;SDS011;30223;17.182;-96.766;2023-02-28T09:16:23;2.42;;;1.08;;
44516;SDS011;30223;17.182;-96.766;2023-02-28T09:18:50;1.58;;;1.48;;
44516;SDS011;30223;17.182;-96.766;2023-02-28T09:21:18;2.05;;;1.20;;
44516;SDS011;30223;17.182;-96.766;2023-02-28T09:23:46;1.92;;;1.25;;
44516;SDS011;30223;17.182;-96.766;2023-02-28T09:26:15;2.30;;;1.35;;
44516;SDS011;30223;17.182;-96.766;2023-02-28T09:28:43;3.08;;;1.48;;
44516;SDS011;30223;17.182;-96.766;2023-02-28T09:31:11;1.88;;;1.25;;
44516;SDS011;30223;17.182;-96.766;2023-02-28T09:33:39;4.10;;;1.42;;
44516;SDS011;30223;17.182;-96.766;2023-02-28T09:36:06;1.63;;;1.52;;
44516;SDS011;30223;17.182;-96.766;2023-02-28T09:38:33;2.30;;;1.42;;
44516;SDS011;30223;17.182;-96.766;2023-02-28T09:41:01;2.20;;;1.63;;
44516;SDS011;30223;17.182;-96.766;2023-02-28T09:43:36;1.40;;;1.30;;
44516;SDS011;30223;17.182;-96.766;2023-02-28T09:46:20;1.52;;;1.10;;
44516;SDS011;30223;17.182;-96.766;2023-02-28T09:48:53;1.40;;;1.05;;
44516;SDS011;30223;17.182;-96.766;2023-02-28T09:54:09;2.65;;;1.10;;
44516;SDS011;30223;17.182;-96.766;2023-02-28T10:02:10;2.78;;;1.27;;
44516;SDS011;30223;17.182;-96.766;2023-02-28T10:04:47;1.75;;;1.00;;
44516;SDS011;30223;17.182;-96.766;2023-02-28T10:10:28;4.72;;;1.13;;
44516;SDS011;30223;17.182;-96.766;2023-02-28T10:13:13;1.15;;;1.00;;
44516;SDS011;30223;17.182;-96.766;2023-02-28T10:16:14;1.85;;;1.20;;
44516;SDS011;30223;17.182;-96.766;2023-02-28T10:18:50;2.85;;;1.40;;
44516;SDS011;30223;17.182;-96.766;2023-02-28T10:24:35;3.17;;;1.00;;
44516;SDS011;30223;17.182;-96.766;2023-02-28T10:27:17;1.88;;;1.05;;
44516;SDS011;30223;17.182;-96.766;2023-02-28T10:30:01;1.70;;;1.20;;
44516;SDS011;30223;17.182;-96.766;2023-02-28T10:32:30;1.25;;;0.98;;
44516;SDS011;30223;17.182;-96.766;2023-02-28T10:37:48;1.60;;;1.30;;
44516;SDS011;30223;17.182;-96.766;2023-02-28T10:42:55;2.17;;;1.15;;
44516;SDS011;30223;17.182;-96.766;2023-02-28T10:45:26;2.30;;;1.60;;
44516;SDS011;30223;17.182;-96.766;2023-02-28T10:47:58;1.30;;;1.17;;
44516;SDS011;30223;17.182;-96.766;2023-02-28T10:58:24;2.28;;;1.48;;
44516;SDS011;30223;17.182;-96.766;2023-02-28T11:00:53;2.22;;;1.08;;
44516;SDS011;30223;17.182;-96.766;2023-02-28T11:03:24;1.35;;;0.98;;
44516;SDS011;30223;17.182;-96.766;2023-02-28T11:06:03;1.55;;;1.20;;
44516;SDS011;30223;17.182;-96.766;2023-02-28T11:08:33;1.65;;;1.50;;
44516;SDS011;30223;17.182;-96.766;2023-02-28T11:11:03;2.53;;;1.35;;
44516;SDS011;30223;17.182;-96.766;2023-02-28T11:13:35;1.67;;;1.13;;
44516;SDS011;30223;17.182;-96.766;2023-02-28T11:16:07;1.98;;;1.67;;
44516;SDS011;30223;17.182;-96.766;2023-02-28T11:21:09;1.83;;;1.65;;
44516;SDS011;30223;17.182;-96.766;2023-02-28T11:23:42;3.20;;;1.35;;
44516;SDS011;30223;17.182;-96.766;2023-02-28T11:26:09;2.05;;;1.52;;
44516;SDS011;30223;17.182;-96.766;2023-02-28T11:28:40;1.25;;;1.10;;
44516;SDS011;30223;17.182;-96.766;2023-02-28T11:33:51;2.00;;;1.27;;
44516;SDS011;30223;17.182;-96.766;2023-02-28T11:39:10;2.38;;;1.77;;
44516;SDS011;30223;17.182;-96.766;2023-02-28T11:47:38;1.40;;;0.95;;
44516;SDS011;30223;17.182;-96.766;2023-02-28T11:50:16;2.60;;;1.63;;
44516;SDS011;30223;17.182;-96.766;2023-02-28T11:55:40;1.77;;;1.45;;
44516;SDS011;30223;17.182;-96.766;2023-02-28T11:58:22;2.25;;;1.30;;
44516;SDS011;30223;17.182;-96.766;2023-02-28T12:03:54;1.70;;;1.15;;
44516;SDS011;30223;17.182;-96.766;2023-02-28T12:06:45;1.52;;;1.35;;
44516;SDS011;30223;17.182;-96.766;2023-02-28T12:21:48;2.40;;;1.20;;
44516;SDS011;30223;17.182;-96.766;2023-02-28T12:29:30;1.58;;;1.08;;
44516;SDS011;30223;17.182;-96.766;2023-02-28T12:32:05;3.25;;;1.23;;
44516;SDS011;30223;17.182;-96.766;2023-02-28T12:34:38;1.60;;;1.27;;
44516;SDS011;30223;17.182;-96.766;2023-02-28T12:37:12;2.00;;;1.27;;
44516;SDS011;30223;17.182;-96.766;2023-02-28T12:39:46;1.25;;;1.05;;
44516;SDS011;30223;17.182;-96.766;2023-02-28T12:45:00;1.33;;;1.23;;
44516;SDS011;30223;17.182;-96.766;2023-02-28T12:47:38;1.88;;;1.38;;
44516;SDS011;30223;17.182;-96.766;2023-02-28T12:50:10;1.88;;;1.50;;
44516;SDS011;30223;17.182;-96.766;2023-02-28T12:55:28;1.35;;;1.15;;
44516;SDS011;30223;17.182;-96.766;2023-02-28T12:58:22;1.55;;;1.30;;
44516;SDS011;30223;17.182;-96.766;2023-02-28T13:09:36;1.58;;;1.27;;
44516;SDS011;30223;17.182;-96.766;2023-02-28T13:12:12;2.47;;;2.08;;
44516;SDS011;30223;17.182;-96.766;2023-02-28T13:14:40;2.05;;;1.50;;
44516;SDS011;30223;17.182;-96.766;2023-02-28T13:19:55;1.90;;;1.10;;
44516;SDS011;30223;17.182;-96.766;2023-02-28T13:22:43;4.88;;;1.65;;
44516;SDS011;30223;17.182;-96.766;2023-02-28T13:28:01;1.73;;;1.30;;
44516;SDS011;30223;17.182;-96.766;2023-02-28T13:33:24;3.70;;;1.43;;
44516;SDS011;30223;17.182;-96.766;2023-02-28T13:36:07;1.92;;;1.33;;
44516;SDS011;30223;17.182;-96.766;2023-02-28T13:38:50;2.70;;;1.38;;
44516;SDS011;30223;17.182;-96.766;2023-02-28T13:51:52;10.57;;;2.63;;
44516;SDS011;30223;17.182;-96.766;2023-02-28T13:54:45;3.70;;;1.30;;
44516;SDS011;30223;17.182;-96.766;2023-02-28T13:57:50;3.60;;;2.17;;
44516;SDS011;30223;17.182;-96.766;2023-02-28T14:00:30;2.72;;;1.65;;
44516;SDS011;30223;17.182;-96.766;2023-02-28T14:03:23;4.55;;;2.10;;
44516;SDS011;30223;17.182;-96.766;2023-02-28T14:09:02;2.60;;;1.60;;
44516;SDS011;30223;17.182;-96.766;2023-02-28T14:11:48;4.85;;;1.70;;
44516;SDS011;30223;17.182;-96.766;2023-02-28T14:17:04;4.93;;;1.88;;
44516;SDS011;30223;17.182;-96.766;2023-02-28T14:19:35;3.08;;;2.40;;
44516;SDS011;30223;17.182;-96.766;2023-02-28T14:36:27;3.13;;;2.13;;
44516;SDS011;30223;17.182;-96.766;2023-02-28T14:41:38;6.13;;;2.92;;
44516;SDS011;30223;17.182;-96.766;2023-02-28T14:44:39;4.25;;;2.10;;
44516;SDS011;30223;17.182;-96.766;2023-02-28T14:47:02;3.08;;;2.13;;
44516;SDS011;30223;17.182;-96.766;2023-02-28T14:49:35;2.95;;;1.52;;
44516;SDS011;30223;17.182;-96.766;2023-02-28T14:52:17;2.42;;;1.88;;
44516;SDS011;30223;17.182;-96.766;2023-02-28T14:54:59;5.32;;;2.58;;
44516;SDS011;30223;17.182;-96.766;2023-02-28T14:57:32;2.40;;;1.63;;
44516;SDS011;30223;17.182;-96.766;2023-02-28T15:00:16;3.90;;;2.15;;
44516;SDS011;30223;17.182;-96.766;2023-02-28T15:02:57;4.88;;;2.35;;
44516;SDS011;30223;17.182;-96.766;2023-02-28T15:05:29;2.45;;;1.60;;
44516;SDS011;30223;17.182;-96.766;2023-02-28T15:08:16;7.25;;;2.20;;
44516;SDS011;30223;17.182;-96.766;2023-02-28T15:10:50;4.28;;;2.58;;
44516;SDS011;30223;17.182;-96.766;2023-02-28T15:13:19;2.40;;;1.60;;
44516;SDS011;30223;17.182;-96.766;2023-02-28T15:15:51;3.38;;;1.98;;
44516;SDS011;30223;17.182;-96.766;2023-02-28T15:20:56;4.47;;;1.98;;
44516;SDS011;30223;17.182;-96.766;2023-02-28T15:23:27;3.83;;;1.63;;
44516;SDS011;30223;17.182;-96.766;2023-02-28T15:25:55;3.30;;;2.13;;
44516;SDS011;30223;17.182;-96.766;2023-02-28T15:28:22;3.95;;;2.13;;
44516;SDS011;30223;17.182;-96.766;2023-02-28T15:30:59;3.50;;;2.42;;
44516;SDS011;30223;17.182;-96.766;2023-02-28T15:33:29;4.43;;;2.38;;
44516;SDS011;30223;17.182;-96.766;2023-02-28T15:38:41;7.43;;;2.10;;
44516;SDS011;30223;17.182;-96.766;2023-02-28T15:44:22;5.35;;;2.03;;
44516;SDS011;30223;17.182;-96.766;2023-02-28T15:46:59;2.17;;;1.95;;
44516;SDS011;30223;17.182;-96.766;2023-02-28T15:49:50;4.35;;;2.28;;
44516;SDS011;30223;17.182;-96.766;2023-02-28T15:52:21;2.35;;;1.75;;
44516;SDS011;30223;17.182;-96.766;2023-02-28T15:54:57;5.38;;;2.63;;
44516;SDS011;30223;17.182;-96.766;2023-02-28T15:57:25;5.93;;;2.13;;
44516;SDS011;30223;17.182;-96.766;2023-02-28T15:59:57;5.28;;;2.22;;
44516;SDS011;30223;17.182;-96.766;2023-02-28T16:02:33;2.72;;;2.35;;
44516;SDS011;30223;17.182;-96.766;2023-02-28T16:07:36;4.00;;;2.80;;
44516;SDS011;30223;17.182;-96.766;2023-02-28T16:10:09;2.60;;;2.10;;
44516;SDS011;30223;17.182;-96.766;2023-02-28T16:12:38;2.33;;;1.65;;
44516;SDS011;30223;17.182;-96.766;2023-02-28T16:15:25;5.38;;;2.25;;
44516;SDS011;30223;17.182;-96.766;2023-02-28T16:17:54;4.68;;;2.22;;
44516;SDS011;30223;17.182;-96.766;2023-02-28T16:20:23;3.87;;;2.40;;
44516;SDS011;30223;17.182;-96.766;2023-02-28T16:25:22;3.42;;;2.35;;
44516;SDS011;30223;17.182;-96.766;2023-02-28T16:27:54;3.80;;;1.60;;
44516;SDS011;30223;17.182;-96.766;2023-02-28T16:30:26;2.53;;;2.25;;
44516;SDS011;30223;17.182;-96.766;2023-02-28T16:32:56;2.42;;;2.22;;
44516;SDS011;30223;17.182;-96.766;2023-02-28T16:35:23;4.57;;;3.45;;
44516;SDS011;30223;17.182;-96.766;2023-02-28T16:37:50;4.18;;;2.28;;
44516;SDS011;30223;17.182;-96.766;2023-02-28T16:40:19;2.67;;;1.85;;
44516;SDS011;30223;17.182;-96.766;2023-02-28T16:42:52;3.28;;;2.28;;
44516;SDS011;30223;17.182;-96.766;2023-02-28T16:45:27;2.80;;;2.22;;
44516;SDS011;30223;17.182;-96.766;2023-02-28T16:47:54;3.55;;;2.40;;
44516;SDS011;30223;17.182;-96.766;2023-02-28T16:50:29;5.32;;;2.13;;
44516;SDS011;30223;17.182;-96.766;2023-02-28T16:52:57;3.30;;;2.22;;
44516;SDS011;30223;17.182;-96.766;2023-02-28T16:55:25;3.28;;;1.90;;
44516;SDS011;30223;17.182;-96.766;2023-02-28T16:57:57;3.17;;;2.20;;
44516;SDS011;30223;17.182;-96.766;2023-02-28T17:00:25;5.65;;;2.08;;
44516;SDS011;30223;17.182;-96.766;2023-02-28T17:02:53;3.22;;;1.80;;
44516;SDS011;30223;17.182;-96.766;2023-02-28T17:05:20;4.07;;;2.78;;
44516;SDS011;30223;17.182;-96.766;2023-02-28T17:07:48;4.57;;;2.33;;
44516;SDS011;30223;17.182;-96.766;2023-02-28T17:10:16;4.03;;;2.80;;
44516;SDS011;30223;17.182;-96.766;2023-02-28T17:12:48;3.40;;;2.53;;
44516;SDS011;30223;17.182;-96.766;2023-02-28T17:15:16;5.65;;;2.40;;
44516;SDS011;30223;17.182;-96.766;2023-02-28T17:17:44;9.20;;;2.97;;
44516;SDS011;30223;17.182;-96.766;2023-02-28T17:20:20;5.03;;;2.22;;
44516;SDS011;30223;17.182;-96.766;2023-02-28T17:22:48;4.75;;;2.50;;
44516;SDS011;30223;17.182;-96.766;2023-02-28T17:25:16;4.50;;;2.63;;
44516;SDS011;30223;17.182;-96.766;2023-02-28T17:27:43;5.40;;;2.38;;
44516;SDS011;30223;17.182;-96.766;2023-02-28T17:30:20;3.97;;;3.22;;
44516;SDS011;30223;17.182;-96.766;2023-02-28T17:32:49;3.53;;;2.05;;